Latest Weather Observations for Kingscote

IDS60801

Issued at 3:21 am CST Friday 22 June 2018 (issued every 10 minutes, with the page automatically refreshed every 10 minutes)

About weather observations | Map of weather stations | Latest weather observations for SA | Other Formats
Station Details ID: 022841 Name: KINGSCOTE AERO Lat: -35.71 Lon: 137.52 Height: 6.23 m
Data from the previous 72 hours. | See also: Recent months at Kingscote
Date/Time
CST
Temp
°C
App
Temp
°C
Dew
Point
°C
Rel
Hum
%
Delta-T
°C
Wind Press
QNH
hPa
Press
MSL
hPa
Rain since
9am
mm
Dir  Spd
km/h
Gust
km/h
Spd
kts
Gust
kts
22/03:00am 2.4 0.7 2.0 97 0.2 CALM 0 0 0 0 1027.6 1027.6 0.0
22/02:30am 2.2 0.5 1.6 96 0.2 CALM 0 0 0 0 1027.7 1027.7 0.0
22/02:12am 2.7 1.0 2.1 96 0.2 CALM 0 0 0 0 1027.8 1027.8 0.0
22/02:00am 3.1 1.5 2.5 96 0.2 CALM 0 0 0 0 1027.7 1027.7 0.0
22/01:36am 2.9 1.3 2.3 96 0.2 CALM 0 0 0 0 1027.8 1027.8 0.0
22/01:30am 2.8 1.2 2.2 96 0.2 CALM 0 0 0 0 1027.8 1027.8 0.0
22/01:00am 3.6 2.1 3.0 96 0.2 CALM 0 0 0 0 1028.1 1028.1 0.0
22/12:30am 3.6 2.1 3.0 96 0.2 CALM 0 0 0 0 1028.4 1028.4 0.0
22/12:19am 3.9 2.5 3.3 96 0.2 CALM 0 0 0 0 1028.5 1028.5 0.0
22/12:00am 3.8 2.3 3.2 96 0.2 CALM 0 0 0 0 1028.6 1028.6 0.0
 
Date/Time
CST
Temp
°C
App
Temp
°C
Dew
Point
°C
Rel
Hum
%
Delta-T
°C
Wind Press
QNH
hPa
Press
MSL
hPa
Rain since
9am
mm
Dir  Spd
km/h
Gust
km/h
Spd
kts
Gust
kts
21/11:58pm 3.9 2.5 3.3 96 0.2 CALM 0 0 0 0 1028.6 1028.6 0.0
21/11:30pm 4.5 3.2 3.9 96 0.2 CALM 0 0 0 0 1028.6 1028.6 0.0
21/11:24pm 4.8 3.5 4.2 96 0.3 CALM 0 0 0 0 1028.7 1028.7 0.0
21/11:09pm 5.1 3.9 4.7 97 0.2 CALM 0 0 0 0 1028.8 1028.8 0.0
21/11:00pm 4.6 3.3 4.0 96 0.3 CALM 0 0 0 0 1028.8 1028.8 0.0
21/10:58pm 4.8 3.5 4.2 96 0.3 CALM 0 0 0 0 1028.8 1028.8 0.0
21/10:30pm 4.7 3.4 4.1 96 0.2 CALM 0 0 0 0 1028.8 1028.8 0.0
21/10:00pm 5.1 3.9 4.5 96 0.3 CALM 0 0 0 0 1028.8 1028.8 0.0
21/09:57pm 5.4 4.2 4.8 96 0.3 CALM 0 0 0 0 1028.8 1028.8 0.0
21/09:46pm 5.3 4.1 4.6 95 0.3 CALM 0 0 0 0 1028.7 1028.7 0.0
21/09:30pm 5.6 4.5 5.0 96 0.3 CALM 0 0 0 0 1028.7 1028.7 0.0
21/09:23pm 5.6 4.5 4.9 95 0.3 CALM 0 0 0 0 1028.7 1028.7 0.0
21/09:04pm 6.0 4.9 5.3 95 0.3 CALM 0 0 0 0 1028.8 1028.8 0.0
21/09:00pm 6.1 5.1 5.4 95 0.3 CALM 0 0 0 0 1028.7 1028.7 0.0
21/08:32pm 7.2 5.6 6.5 95 0.3 WSW 4 7 2 4 1028.7 1028.7 0.0
21/08:30pm 7.3 5.4 6.6 95 0.3 WSW 6 7 3 4 1028.7 1028.7 0.0
21/08:00pm 7.4 4.9 6.7 95 0.3 SSW 9 13 5 7 1028.7 1028.7 0.0
21/07:57pm 7.3 4.4 6.6 95 0.3 SSW 11 15 6 8 1028.7 1028.7 0.0
21/07:38pm 7.8 7.0 6.7 93 0.5 CALM 0 4 0 2 1028.5 1028.5 0.0
21/07:30pm 8.3 6.9 7.2 93 0.5 N 4 7 2 4 1028.4 1028.4 0.0
21/07:00pm 8.9 7.6 7.7 92 0.6 N 4 7 2 4 1028.4 1028.4 0.0
21/06:30pm 9.8 9.4 8.2 90 0.8 CALM 0 0 0 0 1028.2 1028.2 0.0
21/06:00pm 11.0 9.7 9.1 88 0.9 N 6 7 3 4 1028.2 1028.2 0.0
21/05:30pm 12.1 10.7 9.5 84 1.3 N 7 9 4 5 1028.0 1028.0 0.0
21/05:00pm 13.1 11.4 9.9 81 1.6 N 9 11 5 6 1028.0 1028.0 0.0
21/04:30pm 14.0 12.5 10.6 80 1.8 NNE 9 13 5 7 1027.9 1027.9 0.0
21/04:00pm 14.1 12.6 10.7 80 1.8 NNE 9 13 5 7 1027.6 1027.6 0.0
21/03:30pm 14.1 12.0 9.9 76 2.2 NNE 11 17 6 9 1027.5 1027.5 0.0
21/03:00pm 14.4 11.5 9.8 74 2.4 NNE 15 20 8 11 1027.4 1027.4 0.0
21/02:30pm 14.9 13.5 9.5 70 2.8 NE 7 9 4 5 1027.4 1027.4 0.0
21/02:00pm 14.6 12.5 8.3 66 3.2 NE 9 15 5 8 1027.6 1027.6 0.0
21/01:30pm 15.5 12.9 9.4 67 3.1 NNE 13 17 7 9 1027.6 1027.6 0.0
21/01:00pm 15.7 13.6 8.2 61 3.8 NE 9 15 5 8 1028.0 1028.0 0.0
21/12:30pm 15.5 13.9 8.7 64 3.4 E 7 13 4 7 1028.4 1028.4 0.0
21/12:00pm 15.0 14.8 8.9 67 3.1 CALM 0 0 0 0 1028.8 1028.8 0.0
21/11:30am 14.1 14.1 9.7 75 2.2 CALM 0 0 0 0 1029.0 1029.0 0.0
21/11:00am 13.6 13.7 10.2 80 1.8 CALM 0 0 0 0 1029.4 1029.4 0.0
21/10:30am 12.0 12.0 9.7 86 1.2 CALM 0 0 0 0 1029.6 1029.6 0.0
21/10:00am 10.6 10.6 9.8 95 0.4 CALM 0 0 0 0 1029.7 1029.7 0.0
21/09:30am 8.7 8.3 8.3 97 0.2 CALM 0 0 0 0 1029.5 1029.5 0.0
21/09:00am 7.1 6.4 6.8 98 0.1 CALM 0 0 0 0 1029.3 1029.3 0.0
21/08:30am 5.3 4.2 5.0 98 0.1 CALM 0 0 0 0 1029.2 1029.2 0.0
21/08:00am 3.3 1.8 2.9 97 0.2 CALM 0 0 0 0 1029.1 1029.1 0.0
21/07:30am 3.7 2.3 3.3 97 0.2 CALM 0 0 0 0 1028.8 1028.8 0.0
21/07:00am 3.2 1.7 2.8 97 0.2 CALM 0 0 0 0 1028.5 1028.5 0.0
21/06:57am 3.2 1.7 2.8 97 0.2 CALM 0 0 0 0 1028.5 1028.5 0.0
21/06:31am 4.2 2.8 3.8 97 0.2 CALM 0 0 0 0 1028.2 1028.2 0.0
21/06:30am 4.3 3.0 3.9 97 0.2 CALM 0 0 0 0 1028.1 1028.1 0.0
21/06:00am 5.1 3.9 4.7 97 0.2 CALM 0 0 0 0 1027.9 1027.9 0.0
21/05:56am 5.4 4.3 5.1 98 0.1 CALM 0 0 0 0 1027.9 1027.9 0.0
21/05:46am 4.9 3.7 4.5 97 0.2 CALM 0 0 0 0 1027.9 1027.9 0.0
21/05:34am 4.5 3.2 4.1 97 0.2 CALM 0 0 0 0 1027.8 1027.8 0.0
21/05:30am 3.9 2.5 3.5 97 0.2 CALM 0 0 0 0 1027.8 1027.8 0.0
21/05:24am 4.1 2.7 3.7 97 0.2 CALM 0 0 0 0 1027.8 1027.8 0.0
21/05:08am 4.6 3.3 4.2 97 0.2 CALM 0 0 0 0 1027.8 1027.8 0.0
21/05:01am 4.9 3.7 4.5 97 0.2 CALM 0 0 0 0 1027.8 1027.8 0.0
21/05:00am 4.9 3.7 4.5 97 0.2 CALM 0 0 0 0 1027.8 1027.8 0.0
21/04:30am 5.0 3.8 4.6 97 0.2 CALM 0 0 0 0 1027.6 1027.6 0.0
21/04:05am 5.4 4.3 5.0 97 0.2 CALM 0 0 0 0 1027.5 1027.5 0.0
21/04:00am 5.4 4.3 5.0 97 0.2 CALM 0 0 0 0 1027.5 1027.5 0.0
21/03:41am 5.4 4.3 5.0 97 0.2 CALM 0 0 0 0 1027.4 1027.4 0.0
21/03:30am 5.7 4.6 5.3 97 0.2 CALM 0 0 0 0 1027.4 1027.4 0.0
21/03:19am 5.5 4.4 5.1 97 0.2 CALM 0 0 0 0 1027.3 1027.3 0.0
21/03:00am 5.1 3.9 4.5 96 0.3 CALM 0 0 0 0 1027.4 1027.4 0.0
21/02:30am 5.8 4.7 5.2 96 0.3 CALM 0 0 0 0 1027.4 1027.4 0.0
21/02:22am 5.9 4.9 5.5 97 0.2 CALM 0 0 0 0 1027.4 1027.4 0.0
21/02:00am 6.5 5.6 6.1 97 0.2 CALM 0 0 0 0 1027.4 1027.4 0.0
21/01:38am 6.4 5.5 6.0 97 0.2 CALM 0 0 0 0 1027.4 1027.4 0.0
21/01:30am 6.5 5.6 5.9 96 0.3 CALM 0 0 0 0 1027.4 1027.4 0.0
21/01:00am 7.2 6.4 6.6 96 0.3 CALM 0 0 0 0 1027.2 1027.2 0.0
21/12:59am 7.1 6.3 6.5 96 0.3 CALM 0 0 0 0 1027.2 1027.2 0.0
21/12:30am 7.2 6.4 6.6 96 0.3 CALM 0 0 0 0 1027.4 1027.4 0.0
21/12:16am 7.6 6.9 7.0 96 0.3 CALM 0 0 0 0 1027.3 1027.3 0.0
21/12:00am 7.5 6.8 6.8 95 0.3 CALM 0 0 0 0 1027.4 1027.4 0.0
 
Date/Time
CST
Temp
°C
App
Temp
°C
Dew
Point
°C
Rel
Hum
%
Delta-T
°C
Wind Press
QNH
hPa
Press
MSL
hPa
Rain since
9am
mm
Dir  Spd
km/h
Gust
km/h
Spd
kts
Gust
kts
20/11:30pm 8.5 8.0 7.7 95 0.4 CALM 0 0 0 0 1027.4 1027.4 0.0
20/11:12pm 8.7 8.2 7.8 94 0.4 CALM 0 0 0 0 1027.4 1027.4 0.0
20/11:00pm 9.9 9.7 9.0 94 0.4 CALM 0 0 0 0 1027.4 1027.4 0.0
20/10:30pm 10.4 10.3 9.6 95 0.4 CALM 0 0 0 0 1027.3 1027.3 0.0
20/10:00pm 10.7 10.7 9.8 94 0.5 CALM 0 0 0 0 1027.4 1027.4 0.0
20/09:30pm 10.7 10.7 9.8 94 0.5 CALM 0 0 0 0 1027.2 1027.2 0.0
20/09:00pm 11.1 11.2 10.2 94 0.5 CALM 0 0 0 0 1027.1 1027.1 0.0
20/08:30pm 11.4 11.6 10.5 94 0.5 CALM 0 0 0 0 1026.8 1026.8 0.0
20/08:00pm 11.6 11.8 10.7 94 0.5 CALM 0 0 0 0 1026.5 1026.5 0.0
20/07:30pm 11.7 11.9 10.6 93 0.6 CALM 0 0 0 0 1026.3 1026.3 0.0
20/07:00pm 11.5 11.6 10.2 92 0.7 CALM 0 0 0 0 1026.1 1026.1 0.0
20/06:30pm 11.9 11.3 10.5 91 0.7 S 4 6 2 3 1025.9 1025.9 0.0
20/06:00pm 12.3 10.5 10.7 90 0.8 SSW 11 15 6 8 1025.6 1025.6 0.0
20/05:30pm 12.4 10.5 10.6 89 0.9 SW 11 15 6 8 1025.2 1025.2 0.0
20/05:00pm 12.5 10.2 10.4 87 1.1 WSW 13 15 7 8 1025.0 1025.0 0.0
20/04:30pm 12.8 10.9 10.5 86 1.2 W 11 15 6 8 1024.9 1024.9 0.0
20/04:00pm 12.8 10.4 10.2 84 1.3 WSW 13 17 7 9 1024.7 1024.7 0.0
20/03:30pm 12.7 9.3 10.4 86 1.2 SSW 19 24 10 13 1024.4 1024.4 0.0
20/03:00pm 14.1 11.9 9.3 73 2.4 WNW 11 15 6 8 1024.3 1024.3 0.0
20/02:30pm 13.9 10.9 9.1 73 2.4 NW 15 20 8 11 1024.1 1024.1 0.0
20/02:00pm 13.6 10.5 8.7 72 2.5 NNW 15 20 8 11 1024.0 1024.0 0.0
20/01:30pm 13.4 10.2 8.5 72 2.4 NNW 15 19 8 10 1024.1 1024.1 0.0
20/01:00pm 13.2 10.4 8.5 73 2.3 NNW 13 20 7 11 1024.2 1024.2 0.0
20/12:30pm 13.3 9.1 8.4 72 2.4 N 20 28 11 15 1024.3 1024.3 0.0
20/12:00pm 14.1 10.5 8.3 68 2.9 NNW 17 24 9 13 1024.4 1024.4 0.0
20/11:30am 13.5 10.1 7.5 67 2.9 NNW 15 20 8 11 1024.5 1024.5 0.0
20/11:00am 13.8 10.4 7.8 67 3.0 NNW 15 22 8 12 1024.6 1024.6 0.0
20/10:30am 14.0 9.6 7.5 65 3.2 NW 20 24 11 13 1024.7 1024.7 0.0
20/10:00am 14.5 10.2 7.8 64 3.3 NW 20 26 11 14 1024.6 1024.6 0.0
20/09:30am 13.4 10.2 6.7 64 3.2 NW 13 17 7 9 1024.4 1024.4 0.0
20/09:00am 13.2 9.9 6.5 64 3.2 NNW 13 19 7 10 1024.3 1024.3 0.0
20/08:30am 12.4 8.7 6.5 67 2.8 NNW 15 22 8 12 1024.2 1024.2 0.0
20/08:00am 11.7 9.1 6.2 69 2.6 NNW 9 13 5 7 1024.0 1024.0 0.0
20/07:30am 11.6 8.3 6.3 70 2.5 N 13 19 7 10 1023.9 1023.9 0.0
20/07:00am 11.3 9.1 6.0 70 2.5 N 7 13 4 7 1023.6 1023.6 0.0
20/06:30am 11.5 9.0 6.4 71 2.4 N 9 17 5 9 1023.1 1023.1 0.0
20/06:00am 11.7 8.3 5.8 67 2.7 N 13 17 7 9 1022.9 1022.9 0.0
20/05:30am 11.6 8.4 6.7 72 2.3 N 13 19 7 10 1022.6 1022.6 0.0
20/05:00am 11.7 8.4 6.4 70 2.5 NNW 13 17 7 9 1022.5 1022.5 0.0
20/04:30am 11.8 8.5 6.5 70 2.5 NNW 13 22 7 12 1022.4 1022.4 0.0
20/04:00am 11.6 8.7 6.5 71 2.4 NNW 11 20 6 11 1022.4 1022.4 0.0
20/03:30am 11.7 8.4 6.6 71 2.4 N 13 24 7 13 1022.5 1022.5 0.0
20/03:00am 11.7 8.1 6.8 72 2.3 NNW 15 19 8 10 1022.5 1022.5 0.0
20/02:30am 11.9 7.9 6.6 70 2.5 NNW 17 22 9 12 1022.7 1022.7 0.0
20/02:00am 11.8 7.7 6.3 69 2.6 NNW 17 24 9 13 1023.0 1023.0 0.0
20/01:30am 11.8 8.1 6.5 70 2.5 N 15 20 8 11 1022.7 1022.7 0.0
20/01:00am 11.8 7.7 6.3 69 2.6 NNW 17 24 9 13 1022.8 1022.8 0.0
20/12:30am 11.6 7.6 6.5 71 2.4 N 17 24 9 13 1022.9 1022.9 0.0
20/12:00am 11.6 8.5 7.1 74 2.1 NNW 13 20 7 11 1023.0 1023.0 0.0
 
Date/Time
CST
Temp
°C
App
Temp
°C
Dew
Point
°C
Rel
Hum
%
Delta-T
°C
Wind Press
QNH
hPa
Press
MSL
hPa
Rain since
9am
mm
Dir  Spd
km/h
Gust
km/h
Spd
kts
Gust
kts
19/11:30pm 11.6 8.3 7.9 78 1.8 N 15 26 8 14 1023.3 1023.3 0.0
19/11:00pm 11.5 8.0 7.4 76 2.0 N 15 20 8 11 1023.4 1023.4 0.0
19/10:30pm 11.7 8.3 7.6 76 2.0 N 15 22 8 12 1023.2 1023.2 0.0
19/10:00pm 11.6 8.5 7.3 75 2.1 N 13 19 7 10 1023.3 1023.3 0.0
19/09:30pm 11.2 8.5 7.3 77 1.9 NNE 11 15 6 8 1023.3 1023.3 0.0
19/09:00pm 11.4 7.9 7.3 76 2.0 N 15 20 8 11 1023.3 1023.3 0.0
19/08:30pm 11.5 8.0 7.4 76 2.0 N 15 20 8 11 1023.4 1023.4 0.0
19/08:00pm 11.6 8.1 7.1 74 2.2 N 15 20 8 11 1023.6 1023.6 0.0
19/07:30pm 11.5 7.5 6.8 73 2.2 N 17 26 9 14 1023.6 1023.6 0.0
19/07:00pm 11.6 7.7 7.1 74 2.2 N 17 28 9 15 1023.2 1023.2 0.0
19/06:30pm 11.6 7.3 7.1 74 2.1 N 19 26 10 14 1022.9 1022.9 0.0
19/06:00pm 11.7 7.4 6.8 72 2.3 N 19 26 10 14 1022.6 1022.6 0.0
19/05:30pm 11.8 7.8 6.7 71 2.4 N 17 26 9 14 1022.5 1022.5 0.0
19/05:00pm 12.1 8.1 6.6 69 2.6 N 17 24 9 13 1022.5 1022.5 0.0
19/04:30pm 12.1 8.9 6.8 70 2.5 N 13 17 7 9 1022.4 1022.4 0.0
19/04:00pm 12.0 8.7 6.5 69 2.6 N 13 19 7 10 1022.8 1022.8 0.0
19/03:30pm 12.1 8.9 6.8 70 2.5 N 13 19 7 10 1022.8 1022.8 0.0
19/03:00pm 12.3 8.4 7.0 70 2.5 N 17 22 9 12 1022.7 1022.7 0.0
19/02:30pm 12.4 8.1 7.1 70 2.5 NNW 19 24 10 13 1023.0 1023.0 0.0
19/02:00pm 12.4 7.9 6.9 69 2.6 NNW 20 30 11 16 1023.2 1023.2 0.0
19/01:30pm 12.7 7.9 7.2 69 2.6 NNW 22 32 12 17 1023.4 1023.4 0.0
19/01:00pm 12.9 8.5 7.6 70 2.6 N 20 35 11 19 1023.9 1023.9 0.0
19/12:30pm 12.4 8.2 8.1 75 2.1 NNW 20 32 11 17 1024.4 1024.4 0.0
19/12:00pm 12.2 7.6 8.1 76 2.0 N 22 32 12 17 1024.9 1024.9 0.0
19/11:30am 12.0 6.9 7.7 75 2.1 N 24 37 13 20 1025.1 1025.1 0.0
19/11:00am 12.4 7.7 7.7 73 2.3 N 22 32 12 17 1025.6 1025.6 0.0
19/10:30am 11.6 7.7 7.3 75 2.1 N 17 26 9 14 1025.8 1025.8 0.0
19/10:00am 11.3 6.8 6.8 74 2.1 N 20 30 11 16 1025.9 1025.9 0.0
19/09:30am 11.1 6.3 5.8 70 2.4 N 20 35 11 19 1026.2 1026.2 0.0
19/09:00am 10.7 5.5 5.7 71 2.3 N 22 32 12 17 1025.9 1025.9 0.0
19/08:30am 10.5 5.7 5.7 72 2.2 N 20 32 11 17 1025.7 1025.7 0.0
19/08:00am 10.3 6.1 5.9 74 2.0 N 17 20 9 11 1026.1 1026.1 0.0
19/07:30am 10.0 5.9 6.2 77 1.7 N 17 24 9 13 1026.1 1026.1 0.0
19/07:00am 10.4 6.7 6.5 77 1.8 N 15 20 8 11 1026.1 1026.1 0.0
19/06:30am 10.4 6.3 6.2 75 1.9 N 17 26 9 14 1026.1 1026.1 0.0
19/06:00am 10.9 6.9 6.5 74 2.1 N 17 22 9 12 1026.3 1026.3 0.0
19/05:30am 10.6 7.3 6.6 76 1.9 N 13 19 7 10 1026.0 1026.0 0.0
19/05:00am 10.7 7.4 6.3 74 2.1 N 13 19 7 10 1025.9 1025.9 0.0
19/04:30am 11.2 7.5 6.3 72 2.3 N 15 22 8 12 1026.4 1026.4 0.0
19/04:00am 11.3 8.0 6.2 71 2.4 N 13 19 7 10 1026.5 1026.5 0.0
19/03:30am 11.5 8.2 6.6 72 2.3 N 13 19 7 10 1027.1 1027.1 0.0

Other Formats:

Comma delimited format used in spreadsheet applications
http://www.bom.gov.au/fwo/IDS60801/IDS60801.95807.axf

JavaScript Object Notation format (JSON) in row-major order
http://www.bom.gov.au/fwo/IDS60801/IDS60801.95807.json